Time;durP1;ratioP1;P1;durP2;ratioP2;P2;SDS_P1;SDS_P2;PMS_P1;PMS_P2;Temp;Humidity;BMP_temperature;BMP_pressure;BME280_temperature;BME280_humidity;BME280_pressure;Samples;Min_cycle;Max_cycle;Signal;HPM_P1;HPM_P2
2023/02/06 00:00:15;;;;;;;;;6.25;3.75;;;;;8.60;61.07;103764.56;5060584;28;45421;-64
2023/02/06 00:02:41;;;;;;;;;8.25;5.50;;;;;8.51;60.84;103735.94;5060684;28;45394;-65
2023/02/06 00:05:06;;;;;;;;;5.50;3.00;;;;;8.62;61.46;103746.88;5060700;28;45332;-65
2023/02/06 00:07:31;;;;;;;;;8.25;3.50;;;;;8.64;60.85;103749.59;5060780;28;45540;-65
2023/02/06 00:09:57;;;;;;;;;8.00;3.50;;;;;8.51;61.28;103733.28;5074492;28;45878;-65
2023/02/06 00:12:22;;;;;;;;;7.75;3.00;;;;;8.51;61.13;103730.63;5070966;27;45375;-65
2023/02/06 00:14:47;;;;;;;;;7.00;4.00;;;;;8.59;61.24;103753.91;5077025;27;45318;-65
2023/02/06 00:17:13;;;;;;;;;7.50;6.75;;;;;8.53;61.57;103747.53;5073257;28;55252;-65
2023/02/06 00:19:38;;;;;;;;;4.00;2.75;;;;;8.46;61.17;103737.59;5074955;28;45244;-65
2023/02/06 00:22:03;;;;;;;;;7.25;4.00;;;;;8.38;61.17;103733.81;5063012;28;45416;-64
2023/02/06 00:24:29;;;;;;;;;7.50;5.50;;;;;8.45;61.13;103741.16;5060172;28;46870;-65
2023/02/06 00:26:55;;;;;;;;;6.00;6.00;;;;;8.47;61.37;103739.41;5060035;28;46216;-65
2023/02/06 00:29:21;;;;;;;;;7.50;5.50;;;;;8.47;61.26;103731.44;5073647;28;45319;-65
2023/02/06 00:31:46;;;;;;;;;9.00;4.00;;;;;8.55;61.52;103736.03;5066465;28;45410;-65
2023/02/06 00:34:12;;;;;;;;;5.50;3.75;;;;;8.52;61.59;103726.22;5062889;27;45456;-65
2023/02/06 00:36:37;;;;;;;;;6.75;3.50;;;;;8.52;61.55;103731.56;5066117;28;45473;-65
2023/02/06 00:39:02;;;;;;;;;7.25;6.75;;;;;8.43;61.29;103726.88;5070352;27;45340;-65
2023/02/06 00:41:28;;;;;;;;;7.00;4.00;;;;;8.47;61.33;103734.09;5071022;28;45838;-65
2023/02/06 00:43:53;;;;;;;;;6.00;3.00;;;;;8.39;61.36;103727.66;5076336;28;45545;-65
2023/02/06 00:46:19;;;;;;;;;7.50;6.00;;;;;8.48;61.41;103730.56;5059647;28;46384;-65
2023/02/06 00:48:44;;;;;;;;;6.00;3.25;;;;;8.46;61.16;103731.41;5064107;28;46763;-65
2023/02/06 00:51:09;;;;;;;;;6.00;3.75;;;;;8.43;61.63;103728.66;5065981;28;45299;-65
2023/02/06 00:53:34;;;;;;;;;6.25;2.25;;;;;8.50;61.40;103744.81;5076229;28;45418;-64
2023/02/06 00:56:00;;;;;;;;;3.00;3.00;;;;;8.44;61.43;103728.69;5060007;28;48159;-65
2023/02/06 00:58:25;;;;;;;;;6.00;3.75;;;;;8.45;61.37;103727.84;5067115;28;45256;-65
2023/02/06 01:00:51;;;;;;;;;8.75;3.00;;;;;8.51;61.59;103740.38;5068789;28;49834;-65
2023/02/06 01:03:16;;;;;;;;;8.75;3.75;;;;;8.50;61.68;103747.47;5059188;28;45334;-65
2023/02/06 01:05:42;;;;;;;;;3.25;2.00;;;;;8.41;61.38;103730.34;5059794;28;45911;-65
2023/02/06 01:08:07;;;;;;;;;6.00;4.00;;;;;8.48;61.71;103745.63;5067727;28;48266;-65
2023/02/06 01:10:32;;;;;;;;;4.00;2.25;;;;;8.41;61.58;103722.38;5069282;28;45404;-65
2023/02/06 01:12:57;;;;;;;;;7.25;3.75;;;;;8.42;61.66;103741.03;5074641;28;45696;-64
2023/02/06 01:15:23;;;;;;;;;3.25;3.25;;;;;8.43;61.70;103736.63;5071385;28;51137;-65
2023/02/06 01:17:48;;;;;;;;;11.50;3.25;;;;;8.38;61.72;103733.81;5071009;28;45452;-65
2023/02/06 01:20:15;;;;;;;;;7.00;5.00;;;;;8.37;61.90;103731.13;5079467;28;45366;-65
2023/02/06 01:22:40;;;;;;;;;7.00;4.00;;;;;8.35;61.57;103732.00;5071911;27;45488;-65
2023/02/06 01:25:06;;;;;;;;;2.75;1.00;;;;;8.31;61.56;103721.22;5059436;28;45584;-65
2023/02/06 01:27:34;;;;;;;;;6.00;4.50;;;;;8.26;61.66;103717.56;5059178;28;45409;-65
2023/02/06 01:30:00;;;;;;;;;6.25;3.00;;;;;8.30;61.68;103735.38;5067419;28;45675;-65
2023/02/06 01:32:25;;;;;;;;;3.00;3.00;;;;;8.34;61.75;103732.84;5077153;28;58746;-64
2023/02/06 01:34:50;;;;;;;;;9.00;5.25;;;;;8.35;61.55;103741.72;5073256;28;45377;-65
2023/02/06 01:37:16;;;;;;;;;3.00;2.75;;;;;8.35;61.78;103736.41;5077361;27;45310;-65
2023/02/06 01:39:41;;;;;;;;;8.75;3.00;;;;;8.34;61.79;103731.97;5070479;27;45267;-65
2023/02/06 01:42:11;;;;;;;;;6.00;4.00;;;;;8.24;61.83;103720.19;5062081;28;45406;-65
2023/02/06 01:44:36;;;;;;;;;2.75;2.00;;;;;8.30;61.75;103723.00;5071219;27;45452;-64
2023/02/06 01:47:02;;;;;;;;;2.50;2.50;;;;;8.33;61.66;103735.47;5069234;28;45773;-65
2023/02/06 01:49:37;;;;;;;;;12.75;5.25;;;;;8.35;61.97;103726.69;5059146;28;45788;-65
2023/02/06 01:52:24;;;;;;;;;9.50;3.75;;;;;8.33;61.68;103722.16;5072242;28;45486;-65
2023/02/06 01:54:54;;;;;;;;;9.50;3.00;;;;;8.30;61.71;103714.09;5076302;28;48454;-65
2023/02/06 01:57:20;;;;;;;;;6.25;3.50;;;;;8.27;61.95;103716.69;5058908;28;45571;-65
2023/02/06 01:59:51;;;;;;;;;6.75;6.00;;;;;8.21;61.82;103703.25;5059016;28;45376;-65
2023/02/06 02:02:16;;;;;;;;;11.25;6.25;;;;;8.24;61.98;103720.19;5058833;28;45490;-64
2023/02/06 02:04:43;;;;;;;;;3.00;3.00;;;;;8.21;61.72;103709.44;5073193;28;46090;-65
2023/02/06 02:07:20;;;;;;;;;6.50;2.75;;;;;8.22;62.05;103710.34;5070036;27;45310;-65
2023/02/06 02:09:45;;;;;;;;;6.25;4.00;;;;;8.21;61.82;103709.44;5075527;28;45441;-64
2023/02/06 02:12:12;;;;;;;;;4.00;3.50;;;;;8.20;61.92;103704.09;5072241;27;45413;-65
2023/02/06 02:14:39;;;;;;;;;7.75;5.00;;;;;8.18;62.27;103695.19;5080332;27;45426;-65
2023/02/06 02:17:11;;;;;;;;;7.00;4.00;;;;;8.22;62.09;103691.72;5064824;28;45671;-65
2023/02/06 02:19:57;;;;;;;;;7.00;3.50;;;;;8.21;62.04;103696.16;5082283;28;45577;-65
2023/02/06 02:22:41;;;;;;;;;3.00;1.75;;;;;8.19;62.02;103689.00;5080288;28;45455;-65
2023/02/06 02:25:30;;;;;;;;;5.50;4.00;;;;;8.18;62.38;103684.53;5070911;28;46501;-65
2023/02/06 02:28:44;;;;;;;;;7.25;4.75;;;;;8.11;62.26;103686.16;5070505;28;45326;-65
2023/02/06 02:31:48;;;;;;;;;8.75;5.75;;;;;8.08;62.47;103689.59;5075881;28;45684;-64
2023/02/06 02:34:32;;;;;;;;;11.25;6.00;;;;;8.07;62.17;103689.56;5039545;28;45430;-65
2023/02/06 02:37:19;;;;;;;;;6.75;3.25;;;;;7.99;62.75;103670.78;5063505;28;48256;-65
2023/02/06 02:40:10;;;;;;;;;7.25;3.00;;;;;7.96;62.46;103676.91;5072121;28;45510;-65
2023/02/06 02:42:56;;;;;;;;;7.00;6.50;;;;;8.01;62.40;103682.34;5069417;28;45531;-65
2023/02/06 02:45:50;;;;;;;;;12.00;4.25;;;;;8.04;62.49;103681.53;5061720;28;45449;-65
2023/02/06 02:48:22;;;;;;;;;6.00;3.25;;;;;7.94;62.44;103673.31;5074433;28;46449;-65
2023/02/06 02:50:48;;;;;;;;;4.00;3.00;;;;;8.05;62.22;103680.66;5066299;28;45492;-65
2023/02/06 02:53:13;;;;;;;;;7.00;5.00;;;;;8.06;62.56;103680.69;5076150;28;45334;-64
2023/02/06 02:55:39;;;;;;;;;4.25;2.50;;;;;8.06;62.51;103686.03;5082140;28;45324;-64
2023/02/06 02:58:27;;;;;;;;;12.75;7.25;;;;;8.01;62.51;103681.47;5066718;28;46188;-65
2023/02/06 03:01:10;;;;;;;;;10.75;3.75;;;;;8.06;62.49;103687.78;5061886;28;45504;-65
2023/02/06 03:03:39;;;;;;;;;6.25;3.50;;;;;8.05;62.67;103693.97;5067950;28;45424;-64
2023/02/06 03:06:56;;;;;;;;;6.25;3.50;;;;;8.02;62.51;103681.50;5069279;28;45402;-65
2023/02/06 03:09:24;;;;;;;;;7.50;4.00;;;;;7.99;62.63;103681.41;5059499;28;46222;-65
2023/02/06 03:12:03;;;;;;;;;5.50;3.00;;;;;7.96;62.67;103668.91;5067258;28;45389;-65
2023/02/06 03:14:34;;;;;;;;;6.50;3.25;;;;;7.94;62.64;103659.13;5079769;27;45487;-65
2023/02/06 03:17:12;;;;;;;;;6.75;3.75;;;;;7.96;62.56;103660.06;5060651;28;45556;-65
2023/02/06 03:19:44;;;;;;;;;6.75;4.00;;;;;7.90;62.67;103665.19;5075799;28;47387;-65
2023/02/06 03:22:11;;;;;;;;;6.25;3.00;;;;;7.75;62.65;103645.34;5080424;27;45697;-65
2023/02/06 03:24:38;;;;;;;;;6.00;3.25;;;;;7.74;62.84;103650.63;5063588;28;45414;-65
2023/02/06 03:27:09;;;;;;;;;7.00;7.00;;;;;7.72;63.05;103655.00;5061237;28;45456;-65
2023/02/06 03:29:38;;;;;;;;;9.50;7.00;;;;;7.66;63.09;103663.72;5078103;28;48341;-65
2023/02/06 03:32:18;;;;;;;;;9.75;8.50;;;;;7.58;63.51;103644.00;5073183;28;45464;-65
2023/02/06 03:34:58;;;;;;;;;12.50;7.00;;;;;7.51;63.07;103639.38;5069086;28;45412;-65
2023/02/06 03:37:25;;;;;;;;;6.25;5.00;;;;;7.53;63.42;103646.53;5078415;27;45518;-65
2023/02/06 03:39:50;;;;;;;;;6.75;5.75;;;;;7.50;63.26;103637.56;5071209;27;45280;-65
2023/02/06 03:42:16;;;;;;;;;10.50;6.50;;;;;7.42;63.62;103630.31;5076762;28;45300;-65
2023/02/06 03:44:49;;;;;;;;;7.75;5.25;;;;;7.49;63.61;103636.69;5081645;28;45397;-65
2023/02/06 03:47:16;;;;;;;;;16.75;5.00;;;;;7.47;63.63;103635.75;5067355;27;45347;-65
2023/02/06 03:49:44;;;;;;;;;8.25;4.25;;;;;7.46;63.87;103631.28;5072721;28;45320;-65
2023/02/06 03:52:18;;;;;;;;;11.25;7.00;;;;;7.47;63.90;103634.81;5080460;27;45329;-65
2023/02/06 03:54:59;;;;;;;;;6.50;6.50;;;;;7.42;63.96;103627.66;5067616;27;45363;-65
2023/02/06 03:57:27;;;;;;;;;8.75;6.50;;;;;7.47;63.58;103638.41;5060906;28;45359;-65
2023/02/06 03:59:52;;;;;;;;;6.75;5.50;;;;;7.39;63.61;103646.16;5060688;28;45353;-65
2023/02/06 04:02:20;;;;;;;;;7.50;5.75;;;;;7.35;63.80;103638.06;5068542;28;45263;-64
2023/02/06 04:04:46;;;;;;;;;7.25;6.00;;;;;7.20;64.06;103617.28;5078138;28;45553;-64
2023/02/06 04:07:25;;;;;;;;;9.75;7.50;;;;;7.31;63.62;103637.06;5060843;28;45480;-65
2023/02/06 04:09:51;;;;;;;;;10.50;7.25;;;;;7.28;64.23;103634.31;5074760;28;46375;-65
2023/02/06 04:12:16;;;;;;;;;10.50;7.50;;;;;7.31;63.75;103637.06;5070085;28;45244;-65
2023/02/06 04:14:43;;;;;;;;;8.25;6.25;;;;;7.17;64.02;103615.44;5078044;28;45356;-65
2023/02/06 04:17:09;;;;;;;;;13.00;9.00;;;;;7.19;64.20;103602.22;5067908;28;45353;-64
2023/02/06 04:19:34;;;;;;;;;5.25;5.25;;;;;7.31;64.23;103631.75;5061471;28;47535;-65
2023/02/06 04:22:00;;;;;;;;;14.75;8.00;;;;;7.29;64.23;103620.19;5078177;28;45661;-65
2023/02/06 04:24:26;;;;;;;;;10.50;8.25;;;;;7.32;63.90;103619.41;5077480;28;45739;-65
2023/02/06 04:26:51;;;;;;;;;5.25;4.00;;;;;7.26;64.53;103612.13;5069121;28;45604;-64
2023/02/06 04:29:17;;;;;;;;;8.00;6.00;;;;;7.24;64.20;103609.44;5077128;28;45352;-64
2023/02/06 04:31:42;;;;;;;;;9.50;7.50;;;;;7.29;64.11;103616.66;5060323;28;45403;-65
2023/02/06 04:34:08;;;;;;;;;7.75;6.75;;;;;7.27;64.15;103618.34;5059439;28;45441;-65
2023/02/06 04:36:34;;;;;;;;;7.25;6.25;;;;;7.19;64.30;103604.88;5075596;28;45576;-65
2023/02/06 04:38:59;;;;;;;;;7.25;7.25;;;;;7.17;63.99;103602.16;5074687;27;45365;-65
2023/02/06 04:41:25;;;;;;;;;6.50;5.00;;;;;7.13;63.85;103605.56;5060279;28;45367;-65
2023/02/06 04:43:50;;;;;;;;;9.25;5.75;;;;;6.96;63.77;103580.31;5073902;28;45289;-65
2023/02/06 04:46:15;;;;;;;;;8.25;5.25;;;;;6.96;64.70;103602.44;5069664;28;45564;-65
2023/02/06 04:48:41;;;;;;;;;7.50;7.00;;;;;6.95;64.27;103600.66;5062692;28;46763;-65
2023/02/06 04:51:06;;;;;;;;;2.50;2.50;;;;;6.83;64.37;103593.25;5071559;28;45466;-65
2023/02/06 04:53:32;;;;;;;;;8.25;6.25;;;;;6.79;64.77;103594.00;5076799;28;45427;-65
2023/02/06 04:56:11;;;;;;;;;11.50;5.00;;;;;6.67;64.26;103597.19;5060011;28;45551;-64
2023/02/06 04:58:38;;;;;;;;;10.50;6.50;;;;;6.66;64.84;103605.13;5059752;28;46479;-65
2023/02/06 05:01:03;;;;;;;;;12.75;5.00;;;;;6.58;65.54;103599.59;5059697;28;45410;-65
2023/02/06 05:03:29;;;;;;;;;13.50;7.50;;;;;6.64;65.18;103601.53;5059679;28;45478;-65
2023/02/06 05:05:58;;;;;;;;;8.75;5.50;;;;;6.58;65.26;103602.25;5060003;28;45368;-64
2023/02/06 05:08:23;;;;;;;;;15.00;6.50;;;;;6.53;65.29;103603.84;5076586;28;48368;-65
2023/02/06 05:10:48;;;;;;;;;11.75;6.50;;;;;6.48;65.33;103587.81;5080095;28;45337;-65
2023/02/06 05:13:14;;;;;;;;;9.00;8.00;;;;;6.57;65.74;103597.78;5077231;27;45293;-65
2023/02/06 05:15:39;;;;;;;;;6.75;5.25;;;;;6.67;65.82;103598.97;5068958;28;45325;-64
2023/02/06 05:18:05;;;;;;;;;11.75;5.25;;;;;6.61;65.78;103589.03;5072630;28;47304;-64
2023/02/06 05:20:30;;;;;;;;;6.75;6.50;;;;;6.63;65.37;103590.03;5077989;27;45332;-64
2023/02/06 05:22:56;;;;;;;;;6.50;5.00;;;;;6.66;65.42;103600.69;5079534;27;45366;-65
2023/02/06 05:25:22;;;;;;;;;11.25;3.00;;;;;6.69;65.52;103599.91;5068931;28;45401;-65
2023/02/06 05:27:47;;;;;;;;;6.00;2.75;;;;;6.61;65.50;103590.81;5058934;28;47169;-65
2023/02/06 05:30:13;;;;;;;;;7.00;5.00;;;;;6.58;65.39;103594.28;5059545;28;45336;-64
2023/02/06 05:32:39;;;;;;;;;6.75;5.00;;;;;6.68;65.56;103595.44;5075776;28;45579;-65
2023/02/06 05:35:05;;;;;;;;;7.50;6.50;;;;;6.68;65.38;103603.41;5071390;27;45558;-64
2023/02/06 05:37:31;;;;;;;;;8.50;5.50;;;;;6.62;65.05;103592.63;5061364;28;48052;-64
2023/02/06 05:39:56;;;;;;;;;3.25;1.00;;;;;6.57;64.81;103592.47;5070938;28;45295;-65
2023/02/06 05:42:21;;;;;;;;;7.50;6.00;;;;;6.47;65.00;103591.28;5066160;28;45346;-65
2023/02/06 05:44:47;;;;;;;;;6.00;6.00;;;;;6.53;65.19;103609.16;5068060;28;45344;-64
2023/02/06 05:47:12;;;;;;;;;7.75;7.75;;;;;6.58;65.69;103618.19;5073699;28;45285;-65
2023/02/06 05:49:37;;;;;;;;;12.25;7.00;;;;;6.58;65.63;103619.91;5068954;28;52991;-65
2023/02/06 05:52:03;;;;;;;;;3.00;2.50;;;;;6.59;65.80;103614.66;5077590;27;45350;-65
2023/02/06 05:54:29;;;;;;;;;9.75;7.75;;;;;6.63;65.07;103615.63;5066680;28;45351;-65
2023/02/06 05:56:56;;;;;;;;;9.00;6.25;;;;;6.66;65.70;103606.00;5072021;28;47710;-64
2023/02/06 05:59:22;;;;;;;;;10.00;7.00;;;;;6.72;65.17;103620.34;5059148;28;45750;-65
2023/02/06 06:01:47;;;;;;;;;10.00;10.00;;;;;6.63;65.25;103603.28;5058722;28;45791;-65
2023/02/06 06:04:13;;;;;;;;;8.50;6.00;;;;;6.66;64.87;103624.59;5058898;28;45577;-64
2023/02/06 06:06:38;;;;;;;;;7.50;6.50;;;;;6.48;64.99;103601.06;5058827;28;46425;-65
2023/02/06 06:09:04;;;;;;;;;6.25;4.00;;;;;6.60;64.84;103621.78;5071587;28;45422;-65
2023/02/06 06:11:30;;;;;;;;;9.00;6.00;;;;;6.61;64.83;103628.84;5063328;27;45397;-65
2023/02/06 06:13:55;;;;;;;;;6.00;5.00;;;;;6.51;65.31;103607.31;5079280;27;45493;-65
2023/02/06 06:16:21;;;;;;;;;4.50;4.50;;;;;6.56;65.20;103626.94;5073107;28;58388;-64
2023/02/06 06:18:46;;;;;;;;;11.00;5.00;;;;;6.58;65.07;103634.09;5065600;28;45320;-65
2023/02/06 06:21:11;;;;;;;;;4.00;4.00;;;;;6.52;64.76;103640.97;5078052;28;45489;-65
2023/02/06 06:23:37;;;;;;;;;10.75;9.00;;;;;6.44;65.07;103646.03;5074020;28;45499;-64
2023/02/06 06:26:02;;;;;;;;;6.25;5.00;;;;;6.40;65.29;103637.09;5058470;28;45411;-64
2023/02/06 06:28:28;;;;;;;;;6.75;6.00;;;;;6.44;65.61;103644.28;5058428;28;45370;-65
2023/02/06 06:31:01;;;;;;;;;6.25;3.00;;;;;6.53;65.23;103638.34;5073826;28;45415;-64
2023/02/06 06:33:26;;;;;;;;;10.50;6.00;;;;;6.54;65.29;103640.16;5068126;27;45381;-64
2023/02/06 06:35:52;;;;;;;;;11.50;8.00;;;;;6.48;65.15;103617.00;5067688;28;53135;-65
2023/02/06 06:38:17;;;;;;;;;16.50;7.00;;;;;6.59;64.89;103641.19;5074303;28;57828;-65
2023/02/06 06:40:42;;;;;;;;;7.00;5.75;;;;;6.34;65.06;103585.56;5061040;27;45393;-65
2023/02/06 06:43:07;;;;;;;;;5.50;5.50;;;;;6.64;64.86;103644.00;5070150;28;45409;-65
2023/02/06 06:45:33;;;;;;;;;9.75;5.25;;;;;6.50;64.96;103622.34;5064627;28;46030;-64
2023/02/06 06:47:58;;;;;;;;;6.25;6.00;;;;;6.53;64.81;103646.31;5067403;27;45287;-65
2023/02/06 06:50:23;;;;;;;;;11.25;10.00;;;;;6.36;64.69;103613.06;5061361;28;49760;-65
2023/02/06 06:52:49;;;;;;;;;9.00;7.00;;;;;6.42;65.37;103634.47;5064631;27;45478;-65
2023/02/06 06:55:22;;;;;;;;;5.00;2.75;;;;;6.30;65.26;103627.94;5061487;28;46003;-70
2023/02/06 06:57:48;;;;;;;;;9.00;3.00;;;;;6.38;65.45;103636.13;5054862;28;45855;-69
2023/02/06 07:00:14;;;;;;;;;7.50;5.00;;;;;6.37;64.73;103625.47;5070246;28;45481;-63
2023/02/06 07:02:40;;;;;;;;;4.50;4.00;;;;;6.41;65.18;103633.56;5071888;28;45603;-68
2023/02/06 07:05:05;;;;;;;;;6.25;6.25;;;;;6.39;65.30;103624.66;5072276;28;45444;-69
2023/02/06 07:07:31;;;;;;;;;6.50;5.00;;;;;6.31;65.02;103612.91;5075082;27;45315;-69
2023/02/06 07:09:56;;;;;;;;;7.00;5.25;;;;;6.35;65.26;103622.78;5081690;28;45401;-68
2023/02/06 07:12:21;;;;;;;;;11.25;6.75;;;;;6.30;65.46;103619.06;5076332;27;45444;-69
2023/02/06 07:14:47;;;;;;;;;7.00;5.25;;;;;6.36;65.15;103628.97;5077295;27;48069;-69
2023/02/06 07:17:12;;;;;;;;;12.50;8.75;;;;;6.24;65.19;103611.81;5077995;28;45408;-69
2023/02/06 07:19:38;;;;;;;;;10.25;6.75;;;;;6.24;65.04;103611.81;5076120;28;45569;-68
2023/02/06 07:22:03;;;;;;;;;10.75;6.00;;;;;6.25;65.19;103602.13;5078448;28;45606;-69
2023/02/06 07:24:29;;;;;;;;;10.00;9.00;;;;;6.39;65.06;103613.16;5081488;27;45409;-67
2023/02/06 07:26:56;;;;;;;;;10.50;9.25;;;;;6.28;65.74;103603.09;5074868;27;45291;-67
2023/02/06 07:29:22;;;;;;;;;12.50;9.00;;;;;6.33;64.76;103618.25;5077350;27;45525;-67
2023/02/06 07:31:48;;;;;;;;;11.00;8.75;;;;;6.26;65.58;103609.19;5071821;28;45610;-68
2023/02/06 07:34:13;;;;;;;;;6.25;5.50;;;;;6.38;65.05;103635.22;5078564;27;46054;-67
2023/02/06 07:36:39;;;;;;;;;8.25;7.00;;;;;6.39;65.77;103626.41;5079746;27;45418;-69
2023/02/06 07:39:04;;;;;;;;;7.50;6.50;;;;;6.40;65.42;103630.84;5075072;27;48473;-69
2023/02/06 07:41:30;;;;;;;;;7.50;6.00;;;;;6.48;65.07;103642.59;5074103;28;45611;-69
2023/02/06 07:43:55;;;;;;;;;9.00;5.25;;;;;6.47;65.56;103654.97;5070435;28;46881;-69
2023/02/06 07:46:20;;;;;;;;;6.25;6.00;;;;;6.45;65.20;103648.72;5062753;28;48302;-67
2023/02/06 07:48:45;;;;;;;;;6.00;6.00;;;;;6.35;65.34;103646.66;5062906;28;45663;-69
2023/02/06 07:51:11;;;;;;;;;10.75;6.50;;;;;6.45;64.88;103664.66;5067804;27;45843;-68
2023/02/06 07:53:37;;;;;;;;;9.50;7.50;;;;;6.37;65.16;103654.66;5060824;28;45516;-67
2023/02/06 07:56:13;;;;;;;;;10.75;5.75;;;;;6.28;64.80;103641.97;5070953;27;45388;-68
2023/02/06 07:58:39;;;;;;;;;15.50;10.00;;;;;6.22;65.24;103634.75;5077054;27;45519;-69
2023/02/06 08:01:05;;;;;;;;;11.50;7.25;;;;;6.24;65.59;103640.09;5067163;27;45377;-69
2023/02/06 08:03:31;;;;;;;;;12.00;8.75;;;;;6.28;65.05;103644.63;5075787;28;46148;-66
2023/02/06 08:05:57;;;;;;;;;8.50;8.00;;;;;6.28;65.77;103649.94;5079648;27;45867;-70
2023/02/06 08:08:23;;;;;;;;;10.75;8.00;;;;;5.96;65.88;103603.78;5070017;27;45641;-68
2023/02/06 08:10:48;;;;;;;;;6.75;6.00;;;;;6.15;65.04;103626.53;5074151;27;45422;-69
2023/02/06 08:13:14;;;;;;;;;10.25;7.00;;;;;6.19;65.37;103637.28;5079978;27;46060;-68
2023/02/06 08:15:40;;;;;;;;;16.75;7.00;;;;;6.09;65.29;103617.50;5069055;27;45363;-73
2023/02/06 08:18:05;;;;;;;;;10.75;10.00;;;;;6.13;65.07;103639.72;5071130;28;45643;-65
2023/02/06 08:20:30;;;;;;;;;14.75;10.00;;;;;6.06;65.73;103630.66;5076304;27;46144;-65
2023/02/06 08:22:56;;;;;;;;;12.50;10.00;;;;;6.04;65.67;103628.84;5074114;27;45530;-66
2023/02/06 08:25:21;;;;;;;;;9.50;8.00;;;;;6.00;65.57;103616.31;5074534;28;45449;-69
2023/02/06 08:27:52;;;;;;;;;11.00;11.00;;;;;6.16;65.89;103628.34;5074408;27;45531;-66
2023/02/06 08:31:22;;;;;;;;;10.25;8.75;;;;;6.02;66.16;103585.47;5050665;28;45428;-70
2023/02/06 08:33:48;;;;;;;;;9.00;9.00;;;;;5.78;65.43;103540.47;5072414;27;48269;-74
2023/02/06 08:36:23;;;;;;;;;11.50;10.25;;;;;6.07;65.61;103599.78;5074470;27;45913;-74
2023/02/06 08:39:20;;;;;;;;;17.00;11.75;;;;;6.25;65.83;103626.88;5080399;27;46412;-67
2023/02/06 08:41:45;;;;;;;;;14.75;9.75;;;;;6.02;65.64;103581.06;5071647;27;45641;-69
2023/02/06 08:44:14;;;;;;;;;11.25;9.00;;;;;6.11;65.32;103573.41;5076611;27;46826;-75
2023/02/06 08:46:41;;;;;;;;;13.00;11.25;;;;;6.10;65.06;103560.09;5072004;27;47068;-75
2023/02/06 08:49:13;;;;;;;;;14.00;10.25;;;;;6.39;65.83;103610.50;5074773;27;45432;-83
2023/02/06 08:51:40;;;;;;;;;14.75;8.75;;;;;6.40;65.21;103601.66;5078583;27;45598;-75
2023/02/06 08:54:08;;;;;;;;;14.75;10.75;;;;;6.25;65.45;103571.19;5078364;28;45826;-76
2023/02/06 08:56:35;;;;;;;;;14.25;9.50;;;;;6.20;65.28;103564.81;5075737;27;45515;-76
2023/02/06 08:59:01;;;;;;;;;12.25;11.75;;;;;6.27;65.47;103563.25;5080002;27;46463;-75
2023/02/06 09:01:29;;;;;;;;;11.50;10.25;;;;;6.07;65.18;103526.41;5076234;27;45337;-76
2023/02/06 09:03:57;;;;;;;;;13.25;10.00;;;;;6.32;65.16;103558.09;5076504;27;45629;-76
2023/02/06 09:06:24;;;;;;;;;11.75;10.25;;;;;6.33;65.02;103551.94;5074549;27;45413;-75
2023/02/06 09:08:50;;;;;;;;;15.50;10.75;;;;;6.34;65.57;103551.09;5064602;28;45389;-75
2023/02/06 09:11:20;;;;;;;;;15.75;11.00;;;;;6.38;65.42;103561.84;5072988;27;45360;-75
2023/02/06 09:13:46;;;;;;;;;20.00;10.75;;;;;6.32;65.04;103534.22;5079787;28;46314;-76
2023/02/06 09:16:13;;;;;;;;;10.25;10.25;;;;;6.60;65.04;103589.91;5072436;27;45858;-76
2023/02/06 09:18:43;;;;;;;;;17.50;12.75;;;;;6.43;65.29;103565.53;5080457;28;45427;-75
2023/02/06 09:21:11;;;;;;;;;12.50;10.25;;;;;6.57;65.03;103571.25;5087307;27;45730;-75
2023/02/06 09:23:42;;;;;;;;;16.75;12.25;;;;;6.63;64.95;103571.44;5085629;28;47971;-76
2023/02/06 09:26:09;;;;;;;;;16.00;11.25;;;;;6.51;65.34;103548.94;5082113;27;45457;-75
2023/02/06 09:28:34;;;;;;;;;18.25;12.00;;;;;6.47;64.59;103555.91;5066440;27;45351;-76
2023/02/06 09:31:00;;;;;;;;;16.75;13.75;;;;;6.47;64.94;103546.19;5066711;27;45558;-75
2023/02/06 09:33:32;;;;;;;;;14.25;11.50;;;;;6.42;64.89;103531.00;5088989;27;47095;-75
2023/02/06 09:36:11;;;;;;;;;12.75;8.25;;;;;6.70;65.23;103576.91;5061809;27;45363;-74
2023/02/06 09:38:42;;;;;;;;;19.50;14.25;;;;;6.65;64.91;103555.56;5067187;28;45453;-74
2023/02/06 09:41:18;;;;;;;;;29.50;18.25;;;;;6.81;64.66;103581.66;5076879;27;45512;-73
2023/02/06 09:43:52;;;;;;;;;18.25;15.25;;;;;6.68;64.64;103550.31;5074602;28;46961;-85
2023/02/06 09:46:56;;;;;;;;;15.50;13.25;;;;;6.95;64.57;103581.16;5071526;27;45343;-67
2023/02/06 09:49:38;;;;;;;;;13.50;13.25;;;;;6.88;64.27;103547.31;5069991;28;45507;-73
2023/02/06 09:52:39;;;;;;;;;12.75;10.75;;;;;7.10;64.34;103573.63;5079507;27;45366;-69
2023/02/06 09:55:27;;;;;;;;;11.50;11.25;;;;;7.03;64.14;103555.72;5077620;28;47947;-75
2023/02/06 09:58:01;;;;;;;;;15.00;13.25;;;;;7.12;63.70;103561.28;5071600;28;45641;-69
2023/02/06 10:00:37;;;;;;;;;16.75;13.00;;;;;6.94;63.84;103537.78;5067371;27;45456;-70
2023/02/06 10:03:43;;;;;;;;;11.00;7.75;;;;;7.29;63.52;103600.72;5075642;28;45720;-69
2023/02/06 10:06:23;;;;;;;;;15.50;11.75;;;;;7.28;64.27;103589.16;5074776;27;47253;-70
2023/02/06 10:08:55;;;;;;;;;13.00;12.25;;;;;7.31;63.97;103591.91;5059000;28;45261;-70
2023/02/06 10:11:48;;;;;;;;;15.00;12.00;;;;;7.36;63.41;103592.03;5066745;27;45497;-69
2023/02/06 10:14:25;;;;;;;;;12.00;12.00;;;;;7.39;63.82;103582.38;5061631;28;45583;-69
2023/02/06 10:16:59;;;;;;;;;16.50;13.00;;;;;7.26;63.43;103563.41;5069790;27;47709;-69
2023/02/06 10:19:56;;;;;;;;;10.00;6.00;;;;;7.49;63.52;103599.47;5058795;28;45513;-69
2023/02/06 10:22:53;;;;;;;;;16.25;11.75;;;;;7.52;63.75;103601.31;5059408;27;45506;-69
2023/02/06 10:25:51;;;;;;;;;11.75;10.75;;;;;7.30;63.24;103566.22;5058640;28;45307;-70
2023/02/06 10:28:23;;;;;;;;;13.00;11.50;;;;;7.39;63.20;103570.84;5064686;28;45429;-69
2023/02/06 10:30:48;;;;;;;;;14.75;7.50;;;;;7.60;63.38;103594.41;5074328;27;45830;-69
2023/02/06 10:33:37;;;;;;;;;13.00;10.25;;;;;7.52;63.39;103574.75;5076996;28;45576;-69
2023/02/06 10:36:33;;;;;;;;;8.00;8.00;;;;;7.66;62.98;103594.59;5069275;27;45583;-69
2023/02/06 10:39:54;;;;;;;;;;;;;;;;;;;;;
2023/02/06 10:42:41;;;;;;;;;16.75;12.75;;;;;7.76;63.02;103583.31;5023057;28;71739;-70
2023/02/06 10:45:38;;;;;;;;;14.00;12.75;;;;;7.78;62.54;103583.34;5079886;28;45418;-70
2023/02/06 10:48:10;;;;;;;;;15.75;12.50;;;;;7.77;63.29;103570.94;5084346;27;45341;-70
2023/02/06 10:50:43;;;;;;;;;6.25;6.00;;;;;7.71;63.30;103542.41;5061510;27;47189;-69
2023/02/06 10:53:24;;;;;;;;;10.00;7.00;;;;;7.91;63.19;103555.31;5066977;27;45820;-69
2023/02/06 10:55:56;;;;;;;;;20.00;11.00;;;;;8.03;62.74;103573.31;5063369;27;45472;-70
2023/02/06 10:58:27;;;;;;;;;15.00;12.75;;;;;8.07;63.09;103570.78;5067110;28;45551;-68
2023/02/06 11:00:54;;;;;;;;;14.25;10.75;;;;;7.87;62.44;103527.75;5077558;27;46345;-66
2023/02/06 11:03:24;;;;;;;;;17.00;13.50;;;;;8.15;62.70;103557.63;5065789;28;45689;-65
2023/02/06 11:05:51;;;;;;;;;13.00;12.75;;;;;8.06;62.17;103533.47;5078375;27;45560;-66
2023/02/06 11:08:38;;;;;;;;;17.50;13.50;;;;;8.15;62.17;103541.66;5074421;28;45657;-67
2023/02/06 11:11:38;;;;;;;;;15.75;12.50;;;;;8.27;62.11;103567.66;5062415;28;47026;-67
2023/02/06 11:14:21;;;;;;;;;21.00;16.00;;;;;8.19;62.17;103547.97;5032573;28;45770;-67
2023/02/06 11:16:47;;;;;;;;;13.00;11.50;;;;;8.34;61.94;103572.25;5072269;27;45524;-65
2023/02/06 11:19:24;;;;;;;;;14.00;12.50;;;;;8.13;62.19;103536.31;5073025;28;45717;-66
2023/02/06 11:21:53;;;;;;;;;13.25;10.25;;;;;8.15;61.42;103526.63;5072178;28;47443;-67
2023/02/06 11:24:22;;;;;;;;;14.25;11.25;;;;;8.38;61.85;103558.13;5077750;28;45993;-67
2023/02/06 11:26:53;;;;;;;;;15.50;13.00;;;;;8.39;61.47;103556.41;5072979;28;45751;-67
2023/02/06 11:29:35;;;;;;;;;15.75;13.00;;;;;8.30;61.37;103541.09;5079705;28;45332;-67
2023/02/06 11:32:12;;;;;;;;;14.25;12.00;;;;;8.15;61.29;103528.34;5063855;27;45438;-67
2023/02/06 11:34:55;;;;;;;;;15.00;13.25;;;;;8.11;61.21;103519.41;5080373;28;45457;-66
2023/02/06 11:37:31;;;;;;;;;15.50;11.75;;;;;8.37;61.46;103542.13;5062070;28;45389;-66
2023/02/06 11:40:19;;;;;;;;;21.50;13.50;;;;;8.33;61.01;103533.19;5076251;27;45779;-67
2023/02/06 11:42:46;;;;;;;;;15.25;13.00;;;;;8.40;61.24;103535.09;5076460;28;47235;-67
2023/02/06 11:45:32;;;;;;;;;14.50;12.00;;;;;8.38;61.43;103520.88;5080198;28;45488;-66